createdAt,value
2018-05-10T00:02:25.953Z,99.90
2018-05-10T00:04:53.464Z,99.90
2018-05-10T00:07:20.973Z,99.90
2018-05-10T00:09:48.475Z,99.90
2018-05-10T00:15:12.813Z,99.90
2018-05-10T00:17:40.309Z,99.90
2018-05-10T00:20:08.813Z,99.90
2018-05-10T00:22:36.314Z,99.90
2018-05-10T00:25:03.822Z,99.90
2018-05-10T00:27:32.092Z,99.90
2018-05-10T00:30:00.358Z,99.90
2018-05-10T00:32:27.858Z,99.90
2018-05-10T00:40:36.066Z,99.90
2018-05-10T00:43:03.571Z,99.90
2018-05-10T00:45:31.082Z,99.90
2018-05-10T00:47:58.978Z,99.90
2018-05-10T00:50:26.479Z,99.90
2018-05-10T00:52:53.977Z,99.90
2018-05-10T00:55:22.261Z,99.90
2018-05-10T00:57:50.530Z,99.90
2018-05-10T01:00:18.799Z,99.90
2018-05-10T01:02:46.304Z,99.90
2018-05-10T01:05:13.981Z,99.90
2018-05-10T01:07:41.481Z,99.90
2018-05-10T01:10:08.973Z,99.90
2018-05-10T01:12:36.482Z,99.90
2018-05-10T01:17:57.194Z,99.90
2018-05-10T01:20:44.558Z,99.90
2018-05-10T02:15:21.437Z,99.90
2018-05-10T02:17:48.930Z,99.90
2018-05-10T02:20:16.440Z,99.90
2018-05-10T02:25:46.794Z,99.90
2018-05-10T02:28:14.291Z,99.90
2018-05-10T02:30:41.794Z,99.90
2018-05-10T02:33:09.288Z,99.90
2018-05-10T02:35:36.868Z,99.90
2018-05-10T02:38:04.314Z,99.90
2018-05-10T02:40:31.814Z,99.90
2018-05-10T02:43:00.086Z,99.90
2018-05-10T02:45:28.362Z,99.90
2018-05-10T02:47:56.627Z,99.90
2018-05-10T02:50:24.126Z,99.90
2018-05-10T02:52:51.623Z,99.90
2018-05-10T02:55:19.129Z,99.90
2018-05-10T02:57:47.398Z,99.90
2018-05-10T03:00:15.675Z,99.90
2018-05-10T03:02:43.939Z,99.90
2018-05-10T03:05:11.444Z,99.90
2018-05-10T03:07:38.965Z,99.90
2018-05-10T03:10:07.228Z,99.90
2018-05-10T03:12:34.738Z,99.90
2018-05-10T03:15:02.250Z,99.90
2018-05-10T03:20:23.731Z,99.90
2018-05-10T03:25:44.361Z,99.90
2018-05-10T03:28:11.866Z,99.90
2018-05-10T03:30:39.374Z,99.90
2018-05-10T03:33:06.878Z,99.90
2018-05-10T03:35:34.469Z,99.90
2018-05-10T03:38:02.737Z,99.90
2018-05-10T03:40:31.019Z,99.90
2018-05-10T03:42:58.543Z,99.90
2018-05-10T03:45:26.037Z,99.90
2018-05-10T03:47:54.305Z,99.90
2018-05-10T03:50:22.586Z,99.90
2018-05-10T03:52:50.867Z,99.90
2018-05-10T03:55:19.190Z,99.90
2018-05-10T03:57:46.697Z,99.90
2018-05-10T04:00:15.002Z,99.90
2018-05-10T04:02:49.087Z,99.90
2018-05-10T04:05:29.174Z,99.90
2018-05-10T04:08:08.381Z,99.90
2018-05-10T04:10:48.391Z,99.90
2018-05-10T04:13:15.895Z,99.90
2018-05-10T04:15:44.168Z,99.90
2018-05-10T04:18:25.858Z,99.90
2018-05-10T04:21:17.423Z,99.90
2018-05-10T04:23:45.045Z,99.90
2018-05-10T04:26:13.308Z,99.90
2018-05-10T04:28:41.581Z,99.90
2018-05-10T04:31:09.087Z,99.90
2018-05-10T04:33:36.590Z,99.90
2018-05-10T04:36:04.102Z,99.90
2018-05-10T04:38:31.607Z,99.90
2018-05-10T04:40:59.115Z,99.90
2018-05-10T04:43:26.621Z,99.90
2018-05-10T04:45:54.125Z,99.90
2018-05-10T04:48:21.630Z,99.90
2018-05-10T04:50:49.157Z,99.90
2018-05-10T04:53:16.657Z,99.90
2018-05-10T04:55:44.166Z,99.90
2018-05-10T04:58:11.855Z,99.90
2018-05-10T05:00:39.372Z,99.90
2018-05-10T05:03:07.637Z,99.90
2018-05-10T05:05:35.909Z,99.90
2018-05-10T05:08:04.188Z,99.90
2018-05-10T05:10:32.468Z,99.90
2018-05-10T05:13:00.738Z,99.90
2018-05-10T05:15:28.237Z,99.90
2018-05-10T05:20:52.382Z,99.90
2018-05-10T05:26:12.425Z,99.90
2018-05-10T05:28:39.932Z,99.90
2018-05-10T05:31:07.430Z,99.90
2018-05-10T05:33:35.694Z,99.90
2018-05-10T05:36:03.190Z,99.90
2018-05-10T05:38:30.690Z,99.90
2018-05-10T05:40:58.195Z,99.90
2018-05-10T05:43:25.847Z,99.90
2018-05-10T05:45:53.269Z,99.90
2018-05-10T05:48:20.768Z,99.90
2018-05-10T05:50:49.047Z,99.90
2018-05-10T05:53:16.573Z,99.90
2018-05-10T05:55:44.091Z,99.90
2018-05-10T05:58:11.591Z,99.90
2018-05-10T06:00:39.178Z,99.90
2018-05-10T06:03:07.443Z,99.90
2018-05-10T06:05:34.945Z,99.90
2018-05-10T06:08:02.450Z,99.90
2018-05-10T06:10:29.952Z,99.90
2018-05-10T06:21:36.086Z,99.90
2018-05-10T07:15:57.209Z,99.90
2018-05-10T08:15:39.745Z,99.90
2018-05-10T08:18:10.804Z,99.90
2018-05-10T08:20:38.406Z,99.90
2018-05-10T09:20:43.498Z,99.90
2018-05-10T09:26:13.754Z,99.90
2018-05-10T09:28:41.264Z,99.90
2018-05-10T09:31:08.765Z,99.90
2018-05-10T09:33:36.265Z,99.90
2018-05-10T09:36:04.015Z,99.90
2018-05-10T09:38:31.523Z,99.90
2018-05-10T09:40:59.785Z,99.90
2018-05-10T09:43:28.074Z,99.90
2018-05-10T09:45:56.338Z,99.90
2018-05-10T09:48:24.601Z,99.90
2018-05-10T09:50:52.095Z,99.90
2018-05-10T09:53:19.601Z,99.90
2018-05-10T09:55:47.102Z,99.90
2018-05-10T09:58:15.569Z,99.00
2018-05-10T10:00:43.069Z,99.00
2018-05-10T10:03:10.565Z,99.30
2018-05-10T10:05:38.065Z,98.80
2018-05-10T10:08:06.321Z,96.50
2018-05-10T10:10:33.821Z,96.50
2018-05-10T10:13:06.050Z,96.00
2018-05-10T10:15:33.921Z,93.80
2018-05-10T10:18:01.453Z,93.90
2018-05-10T10:23:31.766Z,92.50
2018-05-10T10:26:00.050Z,91.40
2018-05-10T10:28:28.321Z,91.50
2018-05-10T10:30:56.589Z,91.20
2018-05-10T10:33:24.869Z,90.30
2018-05-10T10:35:53.141Z,88.70
2018-05-10T10:38:20.744Z,88.80
2018-05-10T10:40:48.150Z,88.30
2018-05-10T10:43:15.653Z,88.20
2018-05-10T10:45:43.149Z,84.90
2018-05-10T10:48:10.645Z,85.50
2018-05-10T10:50:38.913Z,83.00
2018-05-10T10:53:06.416Z,83.10
2018-05-10T10:55:33.921Z,80.30
2018-05-10T10:58:01.431Z,81.50
2018-05-10T11:00:28.931Z,80.30
2018-05-10T11:02:56.440Z,81.50
2018-05-10T11:05:23.945Z,79.70
2018-05-10T11:07:51.450Z,80.00
2018-05-10T11:10:19.714Z,80.40
2018-05-10T11:15:41.283Z,78.00
2018-05-10T11:18:08.858Z,78.00
2018-05-10T11:23:39.609Z,74.70
2018-05-10T11:26:07.126Z,76.50
2018-05-10T11:28:35.391Z,77.20
2018-05-10T11:31:02.898Z,77.00
2018-05-10T11:33:30.408Z,75.70
2018-05-10T11:35:57.910Z,77.90
2018-05-10T11:38:25.411Z,79.10
2018-05-10T11:40:52.914Z,75.00
2018-05-10T11:43:20.416Z,77.10
2018-05-10T11:45:47.921Z,76.80
2018-05-10T11:48:16.201Z,72.40
2018-05-10T11:50:44.474Z,69.60
2018-05-10T11:53:12.746Z,66.00
2018-05-10T11:55:41.017Z,68.30
2018-05-10T11:58:09.289Z,69.40
2018-05-10T12:00:36.782Z,69.50
2018-05-10T12:03:04.286Z,69.60
2018-05-10T12:05:31.790Z,68.90
2018-05-10T12:08:00.057Z,69.00
2018-05-10T12:10:28.329Z,67.60
2018-05-10T12:15:49.773Z,65.80
2018-05-10T12:21:11.146Z,64.60
2018-05-10T12:23:38.646Z,64.40
2018-05-10T12:26:06.149Z,63.80
2018-05-10T12:28:33.653Z,63.30
2018-05-10T12:31:01.167Z,63.20
2018-05-10T12:33:28.678Z,64.10
2018-05-10T12:35:56.177Z,61.10
2018-05-10T12:38:23.674Z,61.20
2018-05-10T12:40:51.183Z,59.60
2018-05-10T12:43:19.452Z,60.10
2018-05-10T12:45:47.726Z,59.70
2018-05-10T12:48:15.998Z,59.40
2018-05-10T12:50:43.501Z,59.30
2018-05-10T12:53:11.001Z,58.40
2018-05-10T12:55:38.502Z,56.50
2018-05-10T12:58:06.014Z,56.40
2018-05-10T13:00:33.513Z,57.30
2018-05-10T13:03:01.786Z,57.60
2018-05-10T13:05:30.053Z,59.10
2018-05-10T13:07:58.322Z,58.80
2018-05-10T13:10:25.826Z,58.70
2018-05-10T13:12:53.329Z,56.70
2018-05-10T13:21:35.078Z,53.40
2018-05-10T13:24:03.345Z,51.70
2018-05-10T13:26:30.844Z,51.60
2018-05-10T13:28:58.439Z,52.20
2018-05-10T13:31:25.862Z,52.70
2018-05-10T13:33:53.378Z,51.70
2018-05-10T13:36:20.876Z,49.20
2018-05-10T13:38:48.377Z,47.00
2018-05-10T13:41:15.887Z,47.20
2018-05-10T13:43:44.155Z,46.80
2018-05-10T13:46:12.428Z,46.50
2018-05-10T13:48:40.933Z,46.20
2018-05-10T13:51:08.432Z,46.30
2018-05-10T13:53:35.937Z,45.20
2018-05-10T13:56:04.204Z,45.40
2018-05-10T13:58:31.730Z,45.30
2018-05-10T14:00:59.229Z,44.20
2018-05-10T14:03:27.498Z,43.50
2018-05-10T14:05:55.766Z,44.50
2018-05-10T14:08:23.267Z,44.30
2018-05-10T14:10:50.792Z,46.10
2018-05-10T14:22:21.154Z,45.10
2018-05-10T14:24:49.452Z,44.50
2018-05-10T15:16:00.003Z,70.60
2018-05-10T15:18:27.496Z,70.70
2018-05-10T15:20:55.014Z,71.40
2018-05-10T15:23:22.534Z,72.90
2018-05-10T15:25:50.802Z,74.70
2018-05-10T15:28:18.299Z,74.70
2018-05-10T15:30:45.801Z,74.50
2018-05-10T15:33:13.298Z,75.50
2018-05-10T15:35:41.571Z,77.10
2018-05-10T15:38:09.841Z,77.60
2018-05-10T15:40:37.339Z,77.60
2018-05-10T15:43:04.838Z,77.50
2018-05-10T15:45:32.335Z,77.90
2018-05-10T15:47:59.842Z,78.30
2018-05-10T15:50:27.345Z,78.20
2018-05-10T15:52:55.621Z,77.50
2018-05-10T15:55:23.889Z,78.50
2018-05-10T15:57:51.990Z,78.50
2018-05-10T16:00:19.490Z,79.80
2018-05-10T16:02:46.991Z,78.70
2018-05-10T16:05:15.266Z,79.20
2018-05-10T16:07:43.538Z,79.90
2018-05-10T16:10:11.807Z,80.80
2018-05-10T16:21:36.830Z,81.70
2018-05-10T17:12:48.546Z,99.90
2018-05-10T17:18:09.359Z,99.90
2018-05-10T17:26:57.559Z,99.90
2018-05-10T17:29:34.386Z,99.90
2018-05-10T17:34:55.936Z,99.90
2018-05-10T17:37:32.819Z,99.90
2018-05-10T17:46:01.596Z,99.90
2018-05-10T18:00:05.545Z,99.90
2018-05-10T18:05:08.473Z,99.90
2018-05-10T18:10:08.840Z,99.90
2018-05-10T18:12:36.362Z,99.90
2018-05-10T18:15:04.915Z,99.90
2018-05-10T18:23:29.049Z,99.90
2018-05-10T18:28:49.254Z,99.90
2018-05-10T18:31:17.548Z,99.90
2018-05-10T18:33:45.813Z,99.90
2018-05-10T18:36:14.086Z,99.90
2018-05-10T18:38:42.362Z,99.90
2018-05-10T18:41:10.633Z,99.90
2018-05-10T18:43:38.142Z,99.90
2018-05-10T18:46:05.655Z,99.90
2018-05-10T18:48:33.942Z,99.90
2018-05-10T18:51:02.303Z,99.90
2018-05-10T18:53:29.830Z,99.90
2018-05-10T18:55:57.373Z,99.90
2018-05-10T18:58:24.908Z,99.90
2018-05-10T19:00:52.413Z,99.90
2018-05-10T19:03:19.918Z,99.90
2018-05-10T19:05:48.185Z,99.90
2018-05-10T19:08:16.453Z,99.90
2018-05-10T19:10:43.951Z,99.90
2018-05-10T19:16:07.082Z,99.90
2018-05-10T19:31:06.261Z,99.90
2018-05-10T19:33:35.620Z,99.90
2018-05-10T19:36:04.474Z,99.90
2018-05-10T19:38:34.445Z,99.90
2018-05-10T19:41:02.804Z,99.90
2018-05-10T19:43:32.243Z,99.90
2018-05-10T19:46:00.785Z,99.90
2018-05-10T19:48:29.184Z,99.90
2018-05-10T19:50:58.344Z,99.90
2018-05-10T19:53:30.614Z,99.90
2018-05-10T19:58:33.171Z,99.90
2018-05-10T20:01:02.622Z,99.90
2018-05-10T20:03:32.108Z,99.90
2018-05-10T20:06:02.078Z,99.90
2018-05-10T20:11:05.546Z,99.90
2018-05-10T20:13:35.046Z,99.90
2018-05-10T20:16:03.488Z,99.90
2018-05-10T20:24:20.291Z,99.90
2018-05-10T20:27:13.818Z,99.90
2018-05-10T20:29:42.153Z,99.90
2018-05-10T20:32:11.734Z,99.90
2018-05-10T20:34:40.221Z,99.90
2018-05-10T20:37:10.158Z,99.90
2018-05-10T20:39:39.046Z,99.90
2018-05-10T20:42:08.803Z,99.90
2018-05-10T20:44:38.227Z,99.90
2018-05-10T20:47:07.288Z,99.90
2018-05-10T20:49:37.130Z,99.90
2018-05-10T20:52:05.561Z,99.90
2018-05-10T20:54:35.220Z,99.90
2018-05-10T20:57:04.225Z,99.90
2018-05-10T20:59:33.432Z,99.90
2018-05-10T21:02:01.886Z,99.90
2018-05-10T21:04:32.008Z,99.90
2018-05-10T21:07:02.419Z,99.90
2018-05-10T21:09:31.551Z,99.90
2018-05-10T21:12:00.963Z,99.90
2018-05-10T21:14:30.772Z,99.90
2018-05-10T21:16:59.991Z,99.90
2018-05-10T21:22:21.381Z,99.90
2018-05-10T22:23:18.073Z,99.90
2018-05-10T22:25:45.589Z,99.90
2018-05-10T22:28:13.112Z,99.90
2018-05-10T22:30:40.628Z,99.90
2018-05-10T22:33:08.915Z,99.90
2018-05-10T22:35:37.254Z,99.90
2018-05-10T22:38:04.725Z,99.90
2018-05-10T22:40:32.240Z,99.90
2018-05-10T22:42:59.749Z,99.90
2018-05-10T22:45:27.254Z,99.90
2018-05-10T22:47:54.773Z,99.90
2018-05-10T22:50:23.057Z,99.90
2018-05-10T22:52:51.334Z,99.90
2018-05-10T22:55:19.613Z,99.90
2018-05-10T22:57:47.889Z,99.90
2018-05-10T23:00:16.170Z,99.90
2018-05-10T23:02:44.443Z,99.90
2018-05-10T23:05:12.717Z,99.90
2018-05-10T23:07:40.994Z,99.90
2018-05-10T23:10:09.262Z,99.90
2018-05-10T23:12:36.775Z,99.90
2018-05-10T23:21:12.142Z,99.90
